createdAt,value
2023-05-14T00:01:32.722Z,4.70
2023-05-14T00:03:59.804Z,6.32
2023-05-14T00:06:27.263Z,6.63
2023-05-14T00:08:54.370Z,5.00
2023-05-14T00:11:21.812Z,5.18
2023-05-14T00:13:49.658Z,4.30
2023-05-14T00:16:16.795Z,4.40
2023-05-14T00:18:44.089Z,9.02
2023-05-14T00:21:11.108Z,4.22
2023-05-14T00:23:38.275Z,5.88
2023-05-14T00:26:05.315Z,5.35
2023-05-14T00:28:32.284Z,3.42
2023-05-14T00:30:59.378Z,5.00
2023-05-14T00:33:26.330Z,7.85
2023-05-14T00:35:53.329Z,4.25
2023-05-14T00:38:20.439Z,7.97
2023-05-14T00:40:51.772Z,3.95
2023-05-14T00:43:21.136Z,3.70
2023-05-14T00:45:51.208Z,3.33
2023-05-14T00:48:18.700Z,4.18
2023-05-14T00:50:45.847Z,3.75
2023-05-14T00:53:13.432Z,3.60
2023-05-14T00:55:42.657Z,3.17
2023-05-14T00:58:14.288Z,3.17
2023-05-14T01:00:42.254Z,4.05
2023-05-14T01:03:12.392Z,2.97
2023-05-14T01:06:13.999Z,3.40
2023-05-14T01:09:01.548Z,3.27
2023-05-14T01:12:01.166Z,21.30
2023-05-14T01:14:57.102Z,5.13
2023-05-14T01:17:30.320Z,5.22
2023-05-14T01:19:57.894Z,3.58
2023-05-14T01:22:24.852Z,4.32
2023-05-14T01:24:51.915Z,5.68
2023-05-14T01:28:05.579Z,3.30
2023-05-14T01:30:46.208Z,3.25
2023-05-14T01:33:18.120Z,7.80
2023-05-14T01:35:45.745Z,2.58
2023-05-14T01:38:17.318Z,4.43
2023-05-14T01:40:46.556Z,6.50
2023-05-14T01:43:14.473Z,7.93
2023-05-14T01:45:42.795Z,7.53
2023-05-14T01:48:10.135Z,4.47
2023-05-14T01:50:37.184Z,7.40
2023-05-14T01:53:04.205Z,3.45
2023-05-14T01:55:31.691Z,3.80
2023-05-14T01:57:58.828Z,4.25
2023-05-14T02:00:26.344Z,5.85
2023-05-14T02:02:54.271Z,3.83
2023-05-14T02:05:21.629Z,6.97
2023-05-14T02:07:48.668Z,4.45
2023-05-14T02:10:16.263Z,4.35
2023-05-14T02:12:43.335Z,4.07
2023-05-14T02:15:11.102Z,3.05
2023-05-14T02:17:38.458Z,3.00
2023-05-14T02:20:06.373Z,6.05
2023-05-14T02:22:33.403Z,5.43
2023-05-14T02:25:01.062Z,4.18
2023-05-14T02:27:28.261Z,5.97
2023-05-14T02:29:56.575Z,3.92
2023-05-14T02:32:23.700Z,3.78
2023-05-14T02:34:50.827Z,13.48
2023-05-14T02:37:17.799Z,6.05
2023-05-14T02:39:44.842Z,4.80
2023-05-14T02:42:11.856Z,3.53
2023-05-14T02:44:38.866Z,3.85
2023-05-14T02:47:06.140Z,5.90
2023-05-14T02:49:33.404Z,5.95
2023-05-14T02:52:00.936Z,4.38
2023-05-14T02:54:27.914Z,6.88
2023-05-14T02:56:54.970Z,4.10
2023-05-14T02:59:23.615Z,5.15
2023-05-14T03:01:51.235Z,5.38
2023-05-14T03:04:18.770Z,5.32
2023-05-14T03:06:45.825Z,5.00
2023-05-14T03:09:12.831Z,3.50
2023-05-14T03:11:40.084Z,5.15
2023-05-14T03:14:07.065Z,9.75
2023-05-14T03:16:34.144Z,3.20
2023-05-14T03:19:01.320Z,6.68
2023-05-14T03:21:28.451Z,3.95
2023-05-14T03:23:55.437Z,4.57
2023-05-14T03:26:22.400Z,5.20
2023-05-14T03:28:53.069Z,5.10
2023-05-14T03:31:20.113Z,5.75
2023-05-14T03:33:47.350Z,5.68
2023-05-14T03:36:14.363Z,6.00
2023-05-14T03:38:41.299Z,6.53
2023-05-14T03:41:08.661Z,6.03
2023-05-14T03:43:36.098Z,5.43
2023-05-14T03:46:03.118Z,5.35
2023-05-14T03:48:30.433Z,5.03
2023-05-14T03:50:57.715Z,5.53
2023-05-14T03:53:25.082Z,6.60
2023-05-14T03:55:52.034Z,9.60
2023-05-14T03:58:18.988Z,5.15
2023-05-14T04:00:46.016Z,6.50
2023-05-14T04:03:13.573Z,6.85
2023-05-14T04:05:40.684Z,5.65
2023-05-14T04:08:07.857Z,4.88
2023-05-14T04:10:34.856Z,5.90
2023-05-14T04:13:02.226Z,7.40
2023-05-14T04:15:32.975Z,4.65
2023-05-14T04:18:00.070Z,6.78
2023-05-14T04:20:27.892Z,5.95
2023-05-14T04:22:55.120Z,6.97
2023-05-14T04:25:22.225Z,10.93
2023-05-14T04:27:49.627Z,8.30
2023-05-14T04:30:16.654Z,5.80
2023-05-14T04:32:44.521Z,6.47
2023-05-14T04:35:12.353Z,7.07
2023-05-14T04:37:40.437Z,5.68
2023-05-14T04:40:11.343Z,9.23
2023-05-14T04:42:38.928Z,7.30
2023-05-14T04:45:07.093Z,7.10
2023-05-14T04:47:34.607Z,9.50
2023-05-14T04:50:04.864Z,7.68
2023-05-14T04:52:32.081Z,7.78
2023-05-14T04:54:59.249Z,8.52
2023-05-14T04:57:26.251Z,11.32
2023-05-14T04:59:53.272Z,8.35
2023-05-14T05:02:20.298Z,10.15
2023-05-14T05:04:47.313Z,7.88
2023-05-14T05:07:14.649Z,9.00
2023-05-14T05:09:42.983Z,12.95
2023-05-14T05:12:10.475Z,8.40
2023-05-14T05:14:37.412Z,9.70
2023-05-14T05:17:04.552Z,12.52
2023-05-14T05:19:42.416Z,10.45
2023-05-14T05:22:10.556Z,9.48
2023-05-14T05:24:37.700Z,10.85
2023-05-14T05:27:05.547Z,11.30
2023-05-14T05:29:32.577Z,9.70
2023-05-14T05:31:59.710Z,11.55
2023-05-14T05:34:26.868Z,10.32
2023-05-14T05:36:53.849Z,10.02
2023-05-14T05:39:20.896Z,8.23
2023-05-14T05:41:47.944Z,8.70
2023-05-14T05:44:14.866Z,10.52
2023-05-14T05:46:44.257Z,13.05
2023-05-14T05:49:11.249Z,10.23
2023-05-14T05:51:38.804Z,11.02
2023-05-14T05:54:06.002Z,10.98
2023-05-14T05:56:32.995Z,9.90
2023-05-14T05:59:00.006Z,13.70
2023-05-14T06:01:27.311Z,12.23
2023-05-14T06:03:57.211Z,13.88
2023-05-14T06:06:24.180Z,10.52
2023-05-14T06:08:51.333Z,10.25
2023-05-14T06:11:18.476Z,11.48
2023-05-14T06:13:45.411Z,11.40
2023-05-14T06:16:12.434Z,11.75
2023-05-14T06:18:39.571Z,11.68
2023-05-14T06:21:06.621Z,12.02
2023-05-14T06:23:34.382Z,13.80
2023-05-14T06:26:01.325Z,10.63
2023-05-14T06:28:28.483Z,11.02
2023-05-14T06:30:55.874Z,11.27
2023-05-14T06:33:29.765Z,12.75
2023-05-14T06:36:00.927Z,10.43
2023-05-14T06:38:28.034Z,11.10
2023-05-14T06:40:55.008Z,13.38
2023-05-14T06:43:22.469Z,12.82
2023-05-14T06:45:50.500Z,11.75
2023-05-14T06:48:18.952Z,11.35
2023-05-14T06:50:47.468Z,11.45
2023-05-14T06:53:14.598Z,8.93
2023-05-14T06:55:41.630Z,8.32
2023-05-14T06:58:09.297Z,10.93
2023-05-14T07:00:36.313Z,10.85
2023-05-14T07:03:03.390Z,14.85
2023-05-14T07:05:30.630Z,12.00
2023-05-14T07:07:57.617Z,10.43
2023-05-14T07:10:25.147Z,8.82
2023-05-14T07:12:52.388Z,8.18
2023-05-14T07:15:19.399Z,6.57
2023-05-14T07:17:46.492Z,8.40
2023-05-14T07:20:14.078Z,10.73
2023-05-14T07:22:41.068Z,15.57
2023-05-14T07:25:08.649Z,12.82
2023-05-14T07:27:35.647Z,10.75
2023-05-14T07:30:02.862Z,12.32
2023-05-14T07:32:29.877Z,13.40
2023-05-14T07:34:57.024Z,10.27
2023-05-14T07:37:25.952Z,7.57
2023-05-14T07:39:53.776Z,10.35
2023-05-14T07:42:34.405Z,13.60
2023-05-14T07:45:03.012Z,14.52
2023-05-14T07:47:30.100Z,12.88
2023-05-14T07:49:57.792Z,13.82
2023-05-14T07:52:25.350Z,7.63
2023-05-14T07:54:52.585Z,11.18
2023-05-14T07:57:20.040Z,14.15
2023-05-14T07:59:48.844Z,10.57
2023-05-14T08:02:16.983Z,10.52
2023-05-14T08:04:44.387Z,10.13
2023-05-14T08:07:11.883Z,13.85
2023-05-14T08:09:38.902Z,12.40
2023-05-14T08:12:06.817Z,11.85
2023-05-14T08:14:33.973Z,17.77
2023-05-14T08:17:01.161Z,12.68
2023-05-14T08:19:28.607Z,14.20
2023-05-14T08:21:55.608Z,27.90
2023-05-14T08:24:22.710Z,14.80
2023-05-14T08:26:49.804Z,12.98
2023-05-14T08:29:17.012Z,12.77
2023-05-14T08:31:44.171Z,14.90
2023-05-14T08:34:11.227Z,49.35
2023-05-14T08:36:39.201Z,15.60
2023-05-14T08:39:07.785Z,8.00
2023-05-14T08:41:35.729Z,12.80
2023-05-14T08:44:15.114Z,10.35
2023-05-14T08:46:42.641Z,11.18
2023-05-14T08:49:27.175Z,11.15
2023-05-14T08:51:54.565Z,11.18
2023-05-14T08:54:23.719Z,9.30
2023-05-14T08:56:52.417Z,10.18
2023-05-14T08:59:20.529Z,9.27
2023-05-14T09:01:50.042Z,11.77
2023-05-14T09:04:23.301Z,9.73
2023-05-14T09:06:53.543Z,8.50
2023-05-14T09:09:24.130Z,9.82
2023-05-14T09:11:53.870Z,9.45
2023-05-14T09:14:23.238Z,11.38
2023-05-14T09:16:51.792Z,12.35
2023-05-14T09:19:19.445Z,10.18
2023-05-14T09:21:47.828Z,9.95
2023-05-14T09:24:24.115Z,9.45
2023-05-14T09:26:57.164Z,10.60
2023-05-14T09:29:29.175Z,10.60
2023-05-14T09:31:58.059Z,11.93
2023-05-14T09:34:30.801Z,12.70
2023-05-14T09:37:01.341Z,11.43
2023-05-14T09:39:29.599Z,12.77
2023-05-14T09:41:57.004Z,11.50
2023-05-14T09:44:24.888Z,10.35
2023-05-14T09:46:53.583Z,12.10
2023-05-14T09:49:21.335Z,9.75
2023-05-14T09:51:51.638Z,10.38
2023-05-14T09:54:18.751Z,10.38
2023-05-14T09:56:45.879Z,9.20
2023-05-14T09:59:12.916Z,9.38
2023-05-14T10:01:43.355Z,10.75
2023-05-14T10:04:11.552Z,9.25
2023-05-14T10:06:39.866Z,16.73
2023-05-14T10:09:13.360Z,13.90
2023-05-14T10:11:44.358Z,6.40
2023-05-14T10:14:32.761Z,5.82
2023-05-14T10:17:01.959Z,9.18
2023-05-14T10:19:35.325Z,10.98
2023-05-14T10:22:08.317Z,7.90
2023-05-14T10:24:38.780Z,5.47
2023-05-14T10:27:06.087Z,7.07
2023-05-14T10:29:37.989Z,5.40
2023-05-14T10:34:41.202Z,10.23
2023-05-14T10:37:12.261Z,7.65
2023-05-14T10:40:00.017Z,5.30
2023-05-14T10:42:37.662Z,6.30
2023-05-14T10:45:11.342Z,6.10
2023-05-14T10:47:41.041Z,6.03
2023-05-14T10:50:11.192Z,6.97
2023-05-14T10:52:38.328Z,6.40
2023-05-14T10:55:13.028Z,7.43
2023-05-14T10:57:43.384Z,9.13
2023-05-14T11:00:13.787Z,10.95
2023-05-14T11:02:43.318Z,5.47
2023-05-14T11:05:14.340Z,7.20
2023-05-14T11:07:47.878Z,4.32
2023-05-14T11:10:20.574Z,4.68
2023-05-14T11:12:50.041Z,5.55
2023-05-14T11:15:20.299Z,5.45
2023-05-14T11:17:48.969Z,5.38
2023-05-14T11:20:19.669Z,6.32
2023-05-14T11:22:48.882Z,6.55
2023-05-14T11:25:17.038Z,5.10
2023-05-14T11:27:46.116Z,5.65
2023-05-14T11:30:19.214Z,4.60
2023-05-14T11:32:48.514Z,5.32
2023-05-14T11:35:16.938Z,5.50
2023-05-14T11:37:49.360Z,7.93
2023-05-14T11:40:17.008Z,7.63
2023-05-14T11:42:44.378Z,7.10
2023-05-14T11:45:13.098Z,12.18
2023-05-14T11:47:42.299Z,7.93
2023-05-14T11:50:10.062Z,7.35
2023-05-14T11:52:41.656Z,8.93
2023-05-14T11:55:12.894Z,10.40
2023-05-14T11:57:40.963Z,5.20
2023-05-14T12:00:21.008Z,8.13
2023-05-14T12:02:51.809Z,5.00
2023-05-14T12:05:19.235Z,5.35
2023-05-14T12:07:47.460Z,11.30
2023-05-14T12:10:15.466Z,5.00
2023-05-14T12:12:47.562Z,4.82
2023-05-14T12:15:16.928Z,7.57
2023-05-14T12:17:50.601Z,5.25
2023-05-14T12:20:18.345Z,6.95
2023-05-14T12:22:45.332Z,7.25
2023-05-14T12:25:14.141Z,12.85
2023-05-14T12:27:44.900Z,8.45
2023-05-14T12:30:27.421Z,7.47
2023-05-14T12:32:54.553Z,8.57
2023-05-14T12:35:22.835Z,9.38
2023-05-14T12:37:50.229Z,10.60
2023-05-14T12:40:17.285Z,7.05
2023-05-14T12:42:44.509Z,11.57
2023-05-14T12:45:11.929Z,6.75
2023-05-14T12:47:39.099Z,6.20
2023-05-14T12:50:06.996Z,4.63
2023-05-14T12:52:38.632Z,6.80
2023-05-14T12:55:08.926Z,7.38
2023-05-14T12:57:36.108Z,5.18
2023-05-14T13:00:07.049Z,9.48
2023-05-14T13:02:42.011Z,6.72
2023-05-14T13:05:11.346Z,5.32
2023-05-14T13:07:39.056Z,5.93
2023-05-14T13:10:07.133Z,4.32
2023-05-14T13:12:34.327Z,5.97
2023-05-14T13:15:01.739Z,4.40
2023-05-14T13:17:28.771Z,6.00
2023-05-14T13:19:56.035Z,9.07
2023-05-14T13:22:23.140Z,6.85
2023-05-14T13:24:50.303Z,7.72
2023-05-14T13:27:17.456Z,7.70
2023-05-14T13:29:44.431Z,9.60
2023-05-14T13:32:11.602Z,3.55
2023-05-14T13:34:38.680Z,7.22
2023-05-14T13:37:06.064Z,6.30
2023-05-14T13:39:33.009Z,5.53
2023-05-14T13:42:01.098Z,6.28
2023-05-14T13:44:28.138Z,6.68
2023-05-14T13:46:55.259Z,5.47
2023-05-14T13:49:22.524Z,7.40
2023-05-14T13:51:49.464Z,6.63
2023-05-14T13:54:16.468Z,7.68
2023-05-14T13:56:43.622Z,4.50
2023-05-14T13:59:11.214Z,8.63
2023-05-14T14:01:38.303Z,4.60
2023-05-14T14:04:05.495Z,4.90
2023-05-14T14:06:33.238Z,4.72
2023-05-14T14:09:00.511Z,6.90
2023-05-14T14:11:27.902Z,6.15
2023-05-14T14:13:55.281Z,6.00
2023-05-14T14:16:22.263Z,4.70
2023-05-14T14:18:49.395Z,4.13
2023-05-14T14:21:18.257Z,5.18
2023-05-14T14:23:49.026Z,4.28
2023-05-14T14:26:16.382Z,5.47
2023-05-14T14:28:43.683Z,3.75
2023-05-14T14:31:11.475Z,4.78
2023-05-14T14:33:38.492Z,3.05
2023-05-14T14:36:06.629Z,4.80
2023-05-14T14:38:33.583Z,6.60
2023-05-14T14:41:02.954Z,5.22
2023-05-14T14:43:29.934Z,6.25
2023-05-14T14:45:56.961Z,4.63
2023-05-14T14:48:38.018Z,5.65
2023-05-14T14:51:09.133Z,3.60
2023-05-14T14:53:37.188Z,6.35
2023-05-14T14:56:04.788Z,3.80
2023-05-14T14:58:32.121Z,4.60
2023-05-14T15:01:01.609Z,4.47
2023-05-14T15:03:29.293Z,6.65
2023-05-14T15:05:57.043Z,5.80
2023-05-14T15:08:28.291Z,4.93
2023-05-14T15:10:56.525Z,5.38
2023-05-14T15:13:24.586Z,4.88
2023-05-14T15:15:55.040Z,5.82
2023-05-14T15:18:22.060Z,3.72
2023-05-14T15:20:49.544Z,4.22
2023-05-14T15:23:16.639Z,6.10
2023-05-14T15:25:43.683Z,4.22
2023-05-14T15:28:10.899Z,9.98
2023-05-14T15:30:37.909Z,5.55
2023-05-14T15:33:07.934Z,4.57
2023-05-14T15:35:35.139Z,4.80
2023-05-14T15:38:02.230Z,3.78
2023-05-14T15:40:29.578Z,3.67
2023-05-14T15:42:56.716Z,8.10
2023-05-14T15:45:23.861Z,6.88
2023-05-14T15:47:51.073Z,3.97
2023-05-14T15:50:18.262Z,4.75
2023-05-14T15:52:45.486Z,4.03
2023-05-14T15:55:12.582Z,4.18
2023-05-14T15:57:39.738Z,6.05
2023-05-14T16:00:13.697Z,3.85
2023-05-14T16:02:41.180Z,6.43
2023-05-14T16:05:08.682Z,3.90
2023-05-14T16:07:36.735Z,3.90
2023-05-14T16:10:04.216Z,4.15
2023-05-14T16:12:31.732Z,4.63
2023-05-14T16:15:00.045Z,4.13
2023-05-14T16:17:28.163Z,3.72
2023-05-14T16:19:56.511Z,3.45
2023-05-14T16:22:24.113Z,5.53
2023-05-14T16:24:51.337Z,3.72
2023-05-14T16:27:21.606Z,3.17
2023-05-14T16:29:49.019Z,4.43
2023-05-14T16:32:16.067Z,4.07
2023-05-14T16:34:49.605Z,4.43
2023-05-14T16:37:17.603Z,5.07
2023-05-14T16:39:44.580Z,3.40
2023-05-14T16:42:11.788Z,3.55
2023-05-14T16:44:38.864Z,4.47
2023-05-14T16:47:06.033Z,4.85
2023-05-14T16:49:32.971Z,3.38
2023-05-14T16:52:00.058Z,3.50
2023-05-14T16:54:27.093Z,4.50
2023-05-14T16:56:54.406Z,2.85
2023-05-14T16:59:21.422Z,2.85
2023-05-14T17:01:48.557Z,2.95
2023-05-14T17:04:16.043Z,3.97
2023-05-14T17:06:43.112Z,3.15
2023-05-14T17:09:10.148Z,3.00
2023-05-14T17:11:37.331Z,12.68
2023-05-14T17:14:04.579Z,3.13
2023-05-14T17:16:31.546Z,2.13
2023-05-14T17:18:58.670Z,3.58
2023-05-14T17:21:25.799Z,4.20
2023-05-14T17:23:52.907Z,3.30
2023-05-14T17:26:19.913Z,4.68
2023-05-14T17:28:46.879Z,3.72
2023-05-14T17:31:14.388Z,2.58
2023-05-14T17:33:41.391Z,3.42
2023-05-14T17:36:08.665Z,2.55
2023-05-14T17:38:36.116Z,2.70
2023-05-14T17:41:03.145Z,4.55
2023-05-14T17:43:30.391Z,3.92
2023-05-14T17:45:57.386Z,4.57
2023-05-14T17:48:24.714Z,3.40
2023-05-14T17:50:52.143Z,2.97
2023-05-14T17:53:19.363Z,4.43
2023-05-14T17:55:46.457Z,4.68
2023-05-14T17:58:16.141Z,5.22
2023-05-14T18:00:44.025Z,1.98
2023-05-14T18:03:11.468Z,3.40
2023-05-14T18:05:38.805Z,4.32
2023-05-14T18:08:06.561Z,2.72
2023-05-14T18:10:33.823Z,3.13
2023-05-14T18:13:01.498Z,5.50
2023-05-14T18:15:29.483Z,2.95
2023-05-14T18:17:57.138Z,4.38
2023-05-14T18:20:24.191Z,2.83
2023-05-14T18:22:52.275Z,7.43
2023-05-14T18:25:19.364Z,7.45
2023-05-14T18:27:47.008Z,2.88
2023-05-14T18:30:15.577Z,4.32
2023-05-14T18:32:44.476Z,3.25
2023-05-14T18:35:12.793Z,2.60
2023-05-14T18:37:40.858Z,5.80
2023-05-14T18:40:08.730Z,4.90
2023-05-14T18:42:37.926Z,2.60
2023-05-14T18:45:05.183Z,3.28
2023-05-14T18:47:33.235Z,5.05
2023-05-14T18:50:02.025Z,3.95
2023-05-14T18:52:29.366Z,2.97
2023-05-14T18:54:56.723Z,3.00
2023-05-14T18:57:23.969Z,3.85
2023-05-14T18:59:51.258Z,3.08
2023-05-14T19:02:18.302Z,3.25
2023-05-14T19:04:52.448Z,5.07
2023-05-14T19:07:21.243Z,4.28
2023-05-14T19:09:48.872Z,2.78
2023-05-14T19:12:16.248Z,3.03
2023-05-14T19:14:43.660Z,3.05
2023-05-14T19:17:10.973Z,7.50
2023-05-14T19:19:39.242Z,3.55
2023-05-14T19:22:06.673Z,3.20
2023-05-14T19:24:33.927Z,7.32
2023-05-14T19:27:01.220Z,2.78
2023-05-14T19:29:28.206Z,2.80
2023-05-14T19:31:55.492Z,2.85
2023-05-14T19:34:22.508Z,3.65
2023-05-14T19:36:49.881Z,3.10
2023-05-14T19:39:16.867Z,5.10
2023-05-14T19:41:43.976Z,3.40
2023-05-14T19:44:11.032Z,2.42
2023-05-14T19:46:38.142Z,3.28
2023-05-14T19:49:07.679Z,2.42
2023-05-14T19:51:34.750Z,5.95
2023-05-14T19:54:01.740Z,3.42
2023-05-14T19:56:28.754Z,4.35
2023-05-14T19:58:55.798Z,8.30
2023-05-14T20:01:23.052Z,3.40
2023-05-14T20:03:50.090Z,2.78
2023-05-14T20:06:17.510Z,5.40
2023-05-14T20:08:45.496Z,4.72
2023-05-14T20:11:12.623Z,2.83
2023-05-14T20:13:39.562Z,4.93
2023-05-14T20:16:06.710Z,4.18
2023-05-14T20:18:33.885Z,3.78
2023-05-14T20:21:01.573Z,5.30
2023-05-14T20:23:28.683Z,6.47
2023-05-14T20:25:55.733Z,3.63
2023-05-14T20:28:22.910Z,2.50
2023-05-14T20:30:50.080Z,4.10
2023-05-14T20:33:17.345Z,2.72
2023-05-14T20:35:44.423Z,3.33
2023-05-14T20:38:12.804Z,3.53
2023-05-14T20:40:40.263Z,2.63
2023-05-14T20:43:07.253Z,3.35
2023-05-14T20:45:34.238Z,5.25
2023-05-14T20:48:01.642Z,4.35
2023-05-14T20:50:28.867Z,3.55
2023-05-14T20:52:55.978Z,3.28
2023-05-14T20:55:23.552Z,3.55
2023-05-14T20:57:50.982Z,2.83
2023-05-14T21:00:18.831Z,2.95
2023-05-14T21:02:46.447Z,6.82
2023-05-14T21:05:13.982Z,4.47
2023-05-14T21:07:41.059Z,3.53
2023-05-14T21:10:09.987Z,5.03
2023-05-14T21:12:37.074Z,3.60
2023-05-14T21:15:04.683Z,4.65
2023-05-14T21:17:31.950Z,5.20
2023-05-14T21:19:58.885Z,7.00
2023-05-14T21:22:27.407Z,2.72
2023-05-14T21:24:55.658Z,2.83
2023-05-14T21:27:22.927Z,4.68
2023-05-14T21:29:49.955Z,4.53
2023-05-14T21:32:17.007Z,3.90
2023-05-14T21:34:44.124Z,4.18
2023-05-14T21:37:11.258Z,3.05
2023-05-14T21:39:38.203Z,4.70
2023-05-14T21:42:05.498Z,4.65
2023-05-14T21:44:32.459Z,3.70
2023-05-14T21:46:59.623Z,4.25
2023-05-14T21:49:26.637Z,6.85
2023-05-14T21:51:54.580Z,5.20
2023-05-14T21:54:21.682Z,5.47
2023-05-14T21:56:48.864Z,5.72
2023-05-14T21:59:15.909Z,5.90
2023-05-14T22:04:13.313Z,6.35
2023-05-14T22:06:40.530Z,4.38
2023-05-14T22:09:10.442Z,8.18
2023-05-14T22:11:37.653Z,6.25
2023-05-14T22:14:04.717Z,7.45
2023-05-14T22:16:32.739Z,9.13
2023-05-14T22:18:59.843Z,6.63
2023-05-14T22:21:26.856Z,5.47
2023-05-14T22:23:53.804Z,5.70
2023-05-14T22:26:22.957Z,9.93
2023-05-14T22:28:50.050Z,6.55
2023-05-14T22:31:17.191Z,7.50
2023-05-14T22:33:44.233Z,5.72
2023-05-14T22:36:11.214Z,5.15
2023-05-14T22:38:38.994Z,7.32
2023-05-14T22:41:06.073Z,5.93
2023-05-14T22:43:33.047Z,5.85
2023-05-14T22:46:00.357Z,6.05
2023-05-14T22:48:27.483Z,5.75
2023-05-14T22:50:54.445Z,6.45
2023-05-14T22:53:21.549Z,4.88
2023-05-14T22:55:48.667Z,3.60
2023-05-14T22:58:15.702Z,3.88
2023-05-14T23:00:42.697Z,5.43
2023-05-14T23:03:09.808Z,4.43
2023-05-14T23:05:36.934Z,5.20
2023-05-14T23:08:03.913Z,6.18
2023-05-14T23:10:31.240Z,6.80
2023-05-14T23:12:58.180Z,6.03
2023-05-14T23:15:25.529Z,6.85
2023-05-14T23:17:53.028Z,8.55
2023-05-14T23:20:20.098Z,4.75
2023-05-14T23:22:47.056Z,3.63
2023-05-14T23:25:14.047Z,4.50
2023-05-14T23:27:41.340Z,4.45
2023-05-14T23:30:08.935Z,4.68
2023-05-14T23:32:36.062Z,4.88
2023-05-14T23:35:03.429Z,6.00
2023-05-14T23:37:30.719Z,5.88
2023-05-14T23:39:57.884Z,6.32
2023-05-14T23:42:25.027Z,3.95
2023-05-14T23:44:51.963Z,3.90
2023-05-14T23:47:19.023Z,7.45
2023-05-14T23:49:46.146Z,7.75
2023-05-14T23:52:13.283Z,5.03
2023-05-14T23:54:40.399Z,5.57
2023-05-14T23:57:07.623Z,4.15
2023-05-14T23:59:34.574Z,4.25
